Time;durP1;ratioP1;P1;durP2;ratioP2;P2;SDS_P1;SDS_P2;PMS_P1;PMS_P2;Temp;Humidity;BMP_temperature;BMP_pressure;BME280_temperature;BME280_humidity;BME280_pressure;Samples;Min_cycle;Max_cycle;Signal;HPM_P1;HPM_P2
2021/10/17 00:00:16;;;;;;;38.63;11.97;;;3.90;99.90;;;;;;5032966;28;20045;-71
2021/10/17 00:02:45;;;;;;;58.17;13.40;;;3.90;99.90;;;;;;5032703;28;20102;-71
2021/10/17 00:05:14;;;;;;;65.20;14.13;;;4.00;99.90;;;;;;5033922;28;20464;-71
2021/10/17 00:07:41;;;;;;;35.27;13.73;;;3.90;99.90;;;;;;5032963;28;20100;-71
2021/10/17 00:10:15;;;;;;;35.20;12.73;;;4.10;99.90;;;;;;5033190;28;20091;-71
2021/10/17 00:12:43;;;;;;;27.40;11.70;;;4.10;99.90;;;;;;5033314;28;20506;-71
2021/10/17 00:15:14;;;;;;;26.23;12.23;;;4.00;99.90;;;;;;5032686;28;20116;-71
2021/10/17 00:17:42;;;;;;;29.97;12.90;;;4.10;99.90;;;;;;5032863;28;20460;-71
2021/10/17 00:20:10;;;;;;;26.87;11.47;;;4.00;99.90;;;;;;5031923;28;20041;-71
2021/10/17 00:22:39;;;;;;;26.50;11.97;;;4.00;99.90;;;;;;5032459;28;21108;-71
2021/10/17 00:25:08;;;;;;;25.87;12.73;;;4.10;99.90;;;;;;5032211;28;20049;-73
2021/10/17 00:27:35;;;;;;;24.47;10.80;;;4.10;99.90;;;;;;5032721;28;20056;-71
2021/10/17 00:30:03;;;;;;;22.27;9.97;;;4.10;99.90;;;;;;5033837;28;20174;-72
2021/10/17 00:32:30;;;;;;;29.47;10.63;;;4.00;99.90;;;;;;5032891;28;20045;-72
2021/10/17 00:34:58;;;;;;;23.93;9.90;;;3.90;99.90;;;;;;5032479;28;20048;-71
2021/10/17 00:37:27;;;;;;;24.03;10.30;;;4.00;99.90;;;;;;5032907;28;20084;-71
2021/10/17 00:39:56;;;;;;;22.13;10.40;;;4.10;99.90;;;;;;5031817;28;20041;-72
2021/10/17 00:42:23;;;;;;;24.47;9.87;;;4.20;99.90;;;;;;5032151;28;20114;-74
2021/10/17 00:44:56;;;;;;;21.90;9.83;;;4.20;99.90;;;;;;5032655;28;20049;-71
2021/10/17 00:47:23;;;;;;;22.10;9.67;;;4.30;99.90;;;;;;5032102;28;20052;-71
2021/10/17 00:49:50;;;;;;;19.77;10.83;;;4.30;99.90;;;;;;5034114;28;20057;-71
2021/10/17 00:52:17;;;;;;;22.77;10.13;;;4.10;99.90;;;;;;5031680;28;20045;-72
2021/10/17 00:54:44;;;;;;;19.10;9.80;;;4.10;99.90;;;;;;5032447;28;20118;-72
2021/10/17 00:57:13;;;;;;;19.93;10.33;;;4.10;99.90;;;;;;5032153;28;20095;-73
2021/10/17 00:59:41;;;;;;;18.53;10.57;;;4.20;99.90;;;;;;5033034;28;20041;-71
2021/10/17 01:02:08;;;;;;;19.43;10.30;;;4.30;99.90;;;;;;5032664;28;20056;-71
2021/10/17 01:04:38;;;;;;;19.03;9.80;;;4.20;99.90;;;;;;5032016;28;20135;-72
2021/10/17 01:07:05;;;;;;;16.60;9.37;;;4.10;99.90;;;;;;5032408;28;20045;-72
2021/10/17 01:09:32;;;;;;;21.17;9.93;;;4.30;99.90;;;;;;5034697;28;20053;-71
2021/10/17 01:11:59;;;;;;;16.83;8.93;;;4.50;99.90;;;;;;5032236;28;20045;-71
2021/10/17 01:14:28;;;;;;;17.03;9.53;;;4.50;99.90;;;;;;5032244;28;20580;-72
2021/10/17 01:16:55;;;;;;;16.73;9.40;;;4.50;99.90;;;;;;5031749;28;20855;-72
2021/10/17 01:19:23;;;;;;;17.17;9.00;;;4.60;99.90;;;;;;5031273;28;20053;-71
2021/10/17 01:21:52;;;;;;;16.17;9.10;;;4.40;99.90;;;;;;5031859;28;20111;-72
2021/10/17 01:24:19;;;;;;;17.37;9.27;;;4.40;99.90;;;;;;5031646;28;20049;-71
2021/10/17 01:26:47;;;;;;;16.50;9.60;;;4.40;99.90;;;;;;5030829;28;20053;-71
2021/10/17 01:29:15;;;;;;;16.87;9.63;;;4.50;99.90;;;;;;5031665;28;20991;-71
2021/10/17 01:31:51;;;;;;;19.50;10.20;;;4.40;99.90;;;;;;5032291;28;20053;-73
2021/10/17 01:34:19;;;;;;;13.82;8.57;;;4.30;99.90;;;;;;5031817;28;20114;-73
2021/10/17 01:36:47;;;;;;;16.80;9.70;;;4.10;99.90;;;;;;5031077;28;20508;-73
2021/10/17 01:39:18;;;;;;;18.47;10.30;;;4.10;99.90;;;;;;5031011;28;20052;-71
2021/10/17 01:41:45;;;;;;;22.83;10.83;;;4.10;99.90;;;;;;5031367;28;20573;-72
2021/10/17 01:44:14;;;;;;;20.20;10.00;;;4.10;99.90;;;;;;5031910;28;20053;-71
2021/10/17 01:46:41;;;;;;;18.77;9.30;;;4.30;99.90;;;;;;5031278;28;20513;-71
2021/10/17 01:49:10;;;;;;;16.80;9.47;;;4.40;99.90;;;;;;5030413;28;20041;-75
2021/10/17 01:51:38;;;;;;;20.50;10.53;;;4.30;99.90;;;;;;5030065;28;20045;-72
2021/10/17 01:54:05;;;;;;;25.90;11.13;;;4.40;99.90;;;;;;5035797;28;20056;-71
2021/10/17 01:56:35;;;;;;;27.20;11.53;;;4.40;99.90;;;;;;5034391;28;20053;-71
2021/10/17 01:59:02;;;;;;;24.53;10.07;;;4.40;99.90;;;;;;5035379;28;20083;-72
2021/10/17 02:01:29;;;;;;;17.50;9.37;;;4.50;99.90;;;;;;5035287;28;20044;-73
2021/10/17 02:03:59;;;;;;;16.00;9.73;;;4.50;99.90;;;;;;5034455;28;20513;-72
2021/10/17 02:06:26;;;;;;;15.67;8.77;;;4.50;99.90;;;;;;5034131;28;20060;-71
2021/10/17 02:08:53;;;;;;;16.70;9.03;;;4.40;99.90;;;;;;5031230;28;20044;-72
2021/10/17 02:11:20;;;;;;;17.17;9.47;;;4.60;99.90;;;;;;5030682;28;20167;-71
2021/10/17 02:13:49;;;;;;;19.00;9.37;;;4.50;99.90;;;;;;5030653;28;20060;-72
2021/10/17 02:16:16;;;;;;;21.13;10.03;;;4.40;99.90;;;;;;5029253;28;20049;-72
2021/10/17 02:18:43;;;;;;;16.07;9.07;;;4.40;99.90;;;;;;5029206;28;20099;-72
2021/10/17 02:21:10;;;;;;;19.37;9.63;;;4.40;99.90;;;;;;5030301;28;20451;-73
2021/10/17 02:23:38;;;;;;;15.03;8.80;;;4.50;99.90;;;;;;5030400;28;20045;-72
2021/10/17 02:26:06;;;;;;;17.17;9.00;;;4.60;99.90;;;;;;5028514;28;20041;-72
2021/10/17 02:28:33;;;;;;;16.60;8.60;;;4.70;99.90;;;;;;5029548;28;20056;-73
2021/10/17 02:31:01;;;;;;;19.30;10.10;;;4.60;99.90;;;;;;5028906;28;20075;-73
2021/10/17 02:33:28;;;;;;;18.37;9.60;;;4.50;99.90;;;;;;5029326;28;20112;-73
2021/10/17 02:35:55;;;;;;;18.10;10.20;;;4.50;99.90;;;;;;5028965;28;20179;-73
2021/10/17 02:38:22;;;;;;;18.27;9.30;;;4.60;99.90;;;;;;5029406;28;20087;-74
2021/10/17 02:40:50;;;;;;;20.53;10.37;;;4.70;99.90;;;;;;5028643;28;20179;-73
2021/10/17 02:43:17;;;;;;;20.00;9.97;;;4.50;99.90;;;;;;5028875;28;20057;-72
2021/10/17 02:45:44;;;;;;;22.40;10.47;;;4.60;99.90;;;;;;5029294;28;20106;-73
2021/10/17 02:48:12;;;;;;;21.07;11.10;;;4.50;99.90;;;;;;5029364;28;20057;-72
2021/10/17 02:50:39;;;;;;;26.70;10.53;;;4.50;99.90;;;;;;5029623;28;20152;-73
2021/10/17 02:53:06;;;;;;;24.67;10.50;;;4.50;99.90;;;;;;5030613;28;20567;-73
2021/10/17 02:55:33;;;;;;;22.30;10.53;;;4.50;99.90;;;;;;5028102;28;20098;-73
2021/10/17 02:58:00;;;;;;;21.57;10.63;;;4.30;99.90;;;;;;5029783;28;20750;-73
2021/10/17 03:00:27;;;;;;;19.33;10.17;;;4.30;99.90;;;;;;5030152;28;20143;-74
2021/10/17 03:02:54;;;;;;;20.50;9.40;;;4.40;99.90;;;;;;5028445;28;20141;-73
2021/10/17 03:05:23;;;;;;;22.17;9.93;;;4.50;99.90;;;;;;5028887;28;20045;-73
2021/10/17 03:07:50;;;;;;;19.97;10.47;;;4.60;99.90;;;;;;5028159;28;20118;-72
2021/10/17 03:10:17;;;;;;;20.37;9.30;;;4.70;99.90;;;;;;5029033;28;20088;-73
2021/10/17 03:12:44;;;;;;;21.33;10.23;;;4.80;99.90;;;;;;5029804;28;20049;-69
2021/10/17 03:15:11;;;;;;;22.97;9.87;;;4.60;99.90;;;;;;5030018;28;20041;-72
2021/10/17 03:17:38;;;;;;;20.37;9.97;;;4.50;99.90;;;;;;5029222;28;20681;-72
2021/10/17 03:20:06;;;;;;;21.40;10.60;;;4.60;99.90;;;;;;5029338;28;20064;-72
2021/10/17 03:22:35;;;;;;;22.83;10.13;;;4.50;99.90;;;;;;5028973;28;20060;-73
2021/10/17 03:25:02;;;;;;;19.83;10.30;;;4.50;99.90;;;;;;5029002;28;20049;-72
2021/10/17 03:27:29;;;;;;;22.13;10.13;;;4.60;99.90;;;;;;5029252;28;20052;-72
2021/10/17 03:29:56;;;;;;;19.43;9.83;;;4.60;99.90;;;;;;5029919;28;20118;-71
2021/10/17 03:32:23;;;;;;;21.77;10.87;;;4.60;99.90;;;;;;5029644;28;20052;-71
2021/10/17 03:34:50;;;;;;;17.90;9.57;;;4.70;99.90;;;;;;5029496;28;20087;-71
2021/10/17 03:37:17;;;;;;;17.67;8.57;;;4.80;99.90;;;;;;5028114;28;20133;-72
2021/10/17 03:39:45;;;;;;;23.67;10.80;;;4.70;99.90;;;;;;5029199;28;20800;-73
2021/10/17 03:42:12;;;;;;;22.10;10.20;;;4.70;99.90;;;;;;5029692;28;20285;-73
2021/10/17 03:44:39;;;;;;;20.27;10.50;;;4.70;99.90;;;;;;5028260;28;20095;-72
2021/10/17 03:47:06;;;;;;;19.80;9.18;;;4.70;99.90;;;;;;5028543;28;20049;-72
2021/10/17 03:49:34;;;;;;;23.17;10.23;;;4.70;99.90;;;;;;5028666;28;20048;-72
2021/10/17 03:52:01;;;;;;;18.70;9.73;;;4.80;99.90;;;;;;5028680;28;20051;-72
2021/10/17 03:54:28;;;;;;;19.98;9.48;;;4.80;99.90;;;;;;5033012;28;20053;-71
2021/10/17 03:56:56;;;;;;;18.30;8.82;;;4.80;99.90;;;;;;5032001;28;20118;-71
2021/10/17 03:59:23;;;;;;;20.87;10.60;;;4.80;99.90;;;;;;5032438;28;20871;-75
2021/10/17 04:01:50;;;;;;;22.20;9.90;;;4.80;99.90;;;;;;5032172;28;20119;-73
2021/10/17 04:04:17;;;;;;;21.03;9.40;;;4.70;99.90;;;;;;5032289;28;20501;-72
2021/10/17 04:06:45;;;;;;;25.43;10.10;;;4.70;99.90;;;;;;5030994;28;20456;-73
2021/10/17 04:09:12;;;;;;;18.00;9.53;;;4.80;99.90;;;;;;5032104;28;20049;-72
2021/10/17 04:11:39;;;;;;;18.98;9.75;;;4.80;99.90;;;;;;5032089;28;20052;-71
2021/10/17 04:14:07;;;;;;;23.20;10.00;;;4.80;99.90;;;;;;5032844;28;20135;-72
2021/10/17 04:16:34;;;;;;;21.83;10.40;;;4.90;99.90;;;;;;5030980;28;20494;-72
2021/10/17 04:19:03;;;;;;;19.73;9.13;;;4.90;99.90;;;;;;5031854;28;20056;-73
2021/10/17 04:21:31;;;;;;;20.95;10.02;;;4.80;99.90;;;;;;5030971;28;20053;-73
2021/10/17 04:23:58;;;;;;;19.33;8.53;;;4.80;99.90;;;;;;5031619;28;20056;-73
2021/10/17 04:26:25;;;;;;;19.13;9.70;;;5.00;99.90;;;;;;5030389;28;20048;-72
2021/10/17 04:28:52;;;;;;;16.63;9.15;;;4.80;99.90;;;;;;5031079;28;20048;-72
2021/10/17 04:31:20;;;;;;;18.38;9.77;;;4.80;99.90;;;;;;5031377;28;20387;-73
2021/10/17 04:33:47;;;;;;;15.40;9.02;;;4.90;99.90;;;;;;5031072;28;20472;-71
2021/10/17 04:36:15;;;;;;;15.05;8.95;;;4.80;99.90;;;;;;5030525;28;20817;-73
2021/10/17 04:38:42;;;;;;;19.33;9.45;;;4.80;99.90;;;;;;5030929;28;20414;-71
2021/10/17 04:41:09;;;;;;;18.47;8.53;;;4.80;99.90;;;;;;5030585;28;20060;-73
2021/10/17 04:43:36;;;;;;;19.90;8.83;;;4.90;99.90;;;;;;5030745;28;20054;-72
2021/10/17 04:46:03;;;;;;;15.75;8.45;;;4.90;99.90;;;;;;5030211;28;20049;-73
2021/10/17 04:48:32;;;;;;;19.40;9.60;;;4.70;99.90;;;;;;5030969;28;20044;-72
2021/10/17 04:50:59;;;;;;;18.20;9.43;;;4.70;99.90;;;;;;5030592;28;20150;-74
2021/10/17 04:53:26;;;;;;;17.43;9.40;;;4.80;99.90;;;;;;5030842;28;20055;-73
2021/10/17 04:55:53;;;;;;;17.90;8.90;;;4.80;99.90;;;;;;5030086;28;20041;-73
2021/10/17 04:58:20;;;;;;;21.60;9.68;;;4.90;99.90;;;;;;5030604;28;20048;-72
2021/10/17 05:00:47;;;;;;;19.20;9.52;;;4.90;99.90;;;;;;5030576;28;20053;-73
2021/10/17 05:03:14;;;;;;;18.95;9.32;;;4.90;99.90;;;;;;5030845;28;20061;-72
2021/10/17 05:05:43;;;;;;;16.63;8.38;;;4.90;99.90;;;;;;5030585;28;20045;-72
2021/10/17 05:08:10;;;;;;;18.10;8.63;;;4.80;99.90;;;;;;5030252;28;20052;-71
2021/10/17 05:10:37;;;;;;;18.73;9.60;;;4.80;99.90;;;;;;5031557;28;20102;-72
2021/10/17 05:13:04;;;;;;;17.70;8.48;;;4.90;99.90;;;;;;5034424;28;20080;-73
2021/10/17 05:15:31;;;;;;;16.35;8.35;;;5.00;99.90;;;;;;5029650;28;20053;-73
2021/10/17 05:17:58;;;;;;;18.87;8.97;;;4.90;99.90;;;;;;5031445;28;20560;-72
2021/10/17 05:20:25;;;;;;;19.83;8.65;;;5.00;99.90;;;;;;5029774;28;20071;-72
2021/10/17 05:22:54;;;;;;;24.57;9.07;;;5.00;99.90;;;;;;5030421;28;20099;-72
2021/10/17 05:25:21;;;;;;;16.13;8.47;;;5.00;99.90;;;;;;5029424;28;20140;-72
2021/10/17 05:27:48;;;;;;;17.60;7.72;;;5.00;99.90;;;;;;5034325;28;20450;-72
2021/10/17 05:30:15;;;;;;;14.40;8.23;;;5.00;99.90;;;;;;5034297;28;20045;-71
2021/10/17 05:32:42;;;;;;;21.65;9.20;;;5.00;99.90;;;;;;5033988;28;20326;-72
2021/10/17 05:35:09;;;;;;;21.80;10.15;;;5.00;99.90;;;;;;5033573;28;20045;-72
2021/10/17 05:37:36;;;;;;;15.60;7.60;;;5.00;99.90;;;;;;5034123;28;20131;-71
2021/10/17 05:40:06;;;;;;;17.70;9.37;;;5.10;99.90;;;;;;5033640;28;20631;-73
2021/10/17 05:42:33;;;;;;;17.92;9.48;;;5.00;99.90;;;;;;5032809;28;20138;-73
2021/10/17 05:45:00;;;;;;;20.40;9.05;;;5.00;99.90;;;;;;5033691;28;20049;-72
2021/10/17 05:47:27;;;;;;;16.40;9.87;;;5.00;99.90;;;;;;5033930;28;20456;-72
2021/10/17 05:49:54;;;;;;;18.48;9.55;;;5.10;99.90;;;;;;5032047;28;20132;-72
2021/10/17 05:52:21;;;;;;;18.47;9.50;;;5.20;99.90;;;;;;5028866;28;20524;-73
2021/10/17 05:54:48;;;;;;;17.98;9.73;;;5.20;99.90;;;;;;5029945;28;20080;-73
2021/10/17 05:57:16;;;;;;;20.10;11.15;;;5.10;99.90;;;;;;5029618;28;20102;-73
2021/10/17 05:59:43;;;;;;;18.98;10.18;;;5.10;99.90;;;;;;5029761;28;20667;-73
2021/10/17 06:02:10;;;;;;;20.05;9.63;;;5.20;99.90;;;;;;5029442;28;20041;-73
2021/10/17 06:04:37;;;;;;;19.58;9.63;;;5.20;99.90;;;;;;5028513;28;20045;-73
2021/10/17 06:07:05;;;;;;;19.08;8.90;;;5.10;99.90;;;;;;5028276;28;20044;-73
2021/10/17 06:09:35;;;;;;;24.00;9.27;;;5.20;99.90;;;;;;5029616;28;20053;-74
2021/10/17 06:12:02;;;;;;;18.27;9.82;;;5.30;99.90;;;;;;5029408;28;20084;-72
2021/10/17 06:14:31;;;;;;;21.15;9.35;;;5.40;99.90;;;;;;5031286;28;20049;-73
2021/10/17 06:16:58;;;;;;;19.60;9.57;;;5.30;99.90;;;;;;5031784;28;20045;-74
2021/10/17 06:19:25;;;;;;;17.25;9.02;;;5.40;99.90;;;;;;5032677;28;20555;-73
2021/10/17 06:21:52;;;;;;;18.92;9.75;;;5.50;99.90;;;;;;5032674;28;20098;-73
2021/10/17 06:24:19;;;;;;;18.95;9.13;;;5.50;99.90;;;;;;5032889;28;20328;-73
2021/10/17 06:26:46;;;;;;;20.20;9.10;;;5.50;99.90;;;;;;5032724;28;20085;-72
2021/10/17 06:29:13;;;;;;;17.00;9.10;;;5.50;99.90;;;;;;5032305;28;20122;-72
2021/10/17 06:31:42;;;;;;;18.88;8.95;;;5.70;99.90;;;;;;5032093;28;20486;-72
2021/10/17 06:34:09;;;;;;;16.63;8.88;;;5.60;99.90;;;;;;5032472;28;20122;-73
2021/10/17 06:36:36;;;;;;;16.50;8.57;;;5.70;99.90;;;;;;5032339;28;20058;-72
2021/10/17 06:39:03;;;;;;;16.52;8.27;;;5.70;99.90;;;;;;5032309;28;20045;-73
2021/10/17 06:41:30;;;;;;;16.63;8.77;;;5.80;99.90;;;;;;5032843;28;20494;-72
2021/10/17 06:43:57;;;;;;;16.67;8.25;;;5.70;99.90;;;;;;5032583;28;20138;-72
2021/10/17 06:46:24;;;;;;;14.05;8.52;;;5.80;99.90;;;;;;5031715;28;20057;-72
2021/10/17 06:48:53;;;;;;;18.25;9.23;;;5.80;99.90;;;;;;5033792;28;20041;-72
2021/10/17 06:51:20;;;;;;;19.17;8.30;;;5.80;99.90;;;;;;5033534;28;20089;-72
2021/10/17 06:53:47;;;;;;;18.17;8.93;;;5.70;99.90;;;;;;5033474;28;20084;-71
2021/10/17 06:56:14;;;;;;;17.08;8.68;;;5.80;99.90;;;;;;5032177;28;20045;-73
2021/10/17 06:58:41;;;;;;;16.33;8.00;;;5.80;99.90;;;;;;5032980;28;20045;-73
2021/10/17 07:01:08;;;;;;;19.52;8.48;;;5.70;99.90;;;;;;5033015;28;20088;-72
2021/10/17 07:03:35;;;;;;;13.75;7.93;;;5.90;99.90;;;;;;5032356;28;20084;-72
2021/10/17 07:06:06;;;;;;;14.20;8.40;;;6.00;99.90;;;;;;5031811;28;20387;-72
2021/10/17 07:08:33;;;;;;;14.70;8.55;;;5.90;99.90;;;;;;5032341;28;20526;-72
2021/10/17 07:11:00;;;;;;;19.83;8.50;;;6.00;99.90;;;;;;5033383;28;20088;-72
2021/10/17 07:13:27;;;;;;;16.55;8.05;;;6.10;99.90;;;;;;5032576;28;20048;-73
2021/10/17 07:15:54;;;;;;;15.35;8.30;;;6.10;99.90;;;;;;5031932;28;20138;-73
2021/10/17 07:18:21;;;;;;;16.95;8.38;;;6.20;99.90;;;;;;5031809;28;20049;-73
2021/10/17 07:20:49;;;;;;;17.75;8.70;;;6.00;99.90;;;;;;5033658;28;20398;-73
2021/10/17 07:23:17;;;;;;;15.02;8.07;;;6.10;99.90;;;;;;5033659;28;20156;-73
2021/10/17 07:25:45;;;;;;;14.60;8.25;;;6.20;99.90;;;;;;5041488;28;20582;-72
2021/10/17 07:28:12;;;;;;;14.23;7.97;;;6.20;99.90;;;;;;5038116;28;20053;-73
2021/10/17 07:30:39;;;;;;;16.42;8.23;;;6.30;99.90;;;;;;5041134;28;20045;-73
2021/10/17 07:33:06;;;;;;;13.30;7.22;;;6.30;99.90;;;;;;5040972;28;20329;-73
2021/10/17 07:35:33;;;;;;;15.85;7.72;;;6.30;99.90;;;;;;5039550;28;20102;-74
2021/10/17 07:38:01;;;;;;;17.90;7.85;;;6.30;99.90;;;;;;5038018;28;20041;-73
2021/10/17 07:40:29;;;;;;;15.02;7.57;;;6.20;99.90;;;;;;5037146;28;20059;-73
2021/10/17 07:42:56;;;;;;;14.43;8.10;;;6.20;99.90;;;;;;5039992;28;20049;-74
2021/10/17 07:45:24;;;;;;;15.63;7.55;;;6.30;99.90;;;;;;5041237;28;20052;-73
2021/10/17 07:47:52;;;;;;;13.63;7.38;;;6.50;99.90;;;;;;5040854;28;20049;-73
2021/10/17 07:50:19;;;;;;;14.80;7.32;;;6.60;99.90;;;;;;5040993;28;20045;-73
2021/10/17 07:52:46;;;;;;;16.45;8.02;;;6.60;99.90;;;;;;5041122;28;20052;-73
2021/10/17 07:55:13;;;;;;;14.93;7.50;;;6.70;99.90;;;;;;5040716;28;20045;-73
2021/10/17 07:57:48;;;;;;;14.90;7.55;;;6.70;99.90;;;;;;5040952;28;20048;-73
2021/10/17 08:00:18;;;;;;;12.07;6.40;;;6.80;99.90;;;;;;5041147;28;20316;-74
2021/10/17 08:02:45;;;;;;;15.10;7.10;;;6.80;99.90;;;;;;5039596;28;20099;-73
2021/10/17 08:05:12;;;;;;;17.15;8.00;;;6.70;99.90;;;;;;5039444;28;20074;-73
2021/10/17 08:07:40;;;;;;;13.57;7.45;;;6.70;99.90;;;;;;5038852;28;20493;-73
2021/10/17 08:10:08;;;;;;;13.38;7.55;;;6.80;99.90;;;;;;5039315;28;20103;-74
2021/10/17 08:12:35;;;;;;;14.82;8.02;;;6.80;99.90;;;;;;5039509;28;20579;-73
2021/10/17 08:15:05;;;;;;;15.82;7.82;;;6.80;99.90;;;;;;5037593;28;20307;-74
2021/10/17 08:17:32;;;;;;;15.05;7.55;;;6.90;99.90;;;;;;5036616;28;20056;-73
2021/10/17 08:20:00;;;;;;;15.43;7.80;;;6.70;99.90;;;;;;5034927;28;20053;-73
2021/10/17 08:22:27;;;;;;;16.08;7.25;;;7.00;99.90;;;;;;5033345;28;20048;-73
2021/10/17 08:24:54;;;;;;;13.43;7.43;;;7.10;99.90;;;;;;5033452;28;20052;-73
2021/10/17 08:27:21;;;;;;;14.30;7.25;;;7.20;99.90;;;;;;5032729;28;20497;-74
2021/10/17 08:29:48;;;;;;;15.85;7.35;;;7.30;99.90;;;;;;5034603;28;20064;-73
2021/10/17 08:32:16;;;;;;;15.23;7.07;;;7.40;99.90;;;;;;5036944;28;20091;-73
2021/10/17 08:34:43;;;;;;;15.30;7.55;;;7.50;99.90;;;;;;5037319;28;20084;-73
2021/10/17 08:37:11;;;;;;;14.23;7.22;;;7.50;99.90;;;;;;5036208;28;20099;-73
2021/10/17 08:39:38;;;;;;;16.65;6.60;;;7.60;99.90;;;;;;5033666;28;20053;-74
2021/10/17 08:42:06;;;;;;;13.57;7.20;;;7.60;99.90;;;;;;5032514;28;20044;-73
2021/10/17 08:44:33;;;;;;;15.30;7.40;;;7.80;99.90;;;;;;5032286;28;20049;-73
2021/10/17 08:47:00;;;;;;;13.73;7.40;;;7.70;99.90;;;;;;5033404;28;20048;-73
2021/10/17 08:49:30;;;;;;;13.70;7.32;;;7.90;99.90;;;;;;5036464;28;20052;-72
2021/10/17 08:51:57;;;;;;;16.02;7.63;;;8.00;99.90;;;;;;5035047;28;20084;-73
2021/10/17 08:54:24;;;;;;;14.80;7.30;;;7.70;99.90;;;;;;5034509;28;20127;-73
2021/10/17 08:56:51;;;;;;;15.15;7.70;;;7.90;99.90;;;;;;5034603;28;20575;-73
2021/10/17 08:59:18;;;;;;;13.82;7.38;;;7.90;99.90;;;;;;5034736;28;20056;-73
2021/10/17 09:01:45;;;;;;;13.50;7.50;;;8.00;99.90;;;;;;5034163;28;20583;-73
2021/10/17 09:04:15;;;;;;;13.82;7.60;;;8.10;99.90;;;;;;5035353;28;20796;-73
2021/10/17 09:06:46;;;;;;;18.80;7.32;;;8.10;99.90;;;;;;5034053;28;20829;-73
2021/10/17 09:09:15;;;;;;;12.25;6.82;;;7.80;99.90;;;;;;5034987;28;20413;-73
2021/10/17 09:11:45;;;;;;;12.00;6.93;;;8.20;99.90;;;;;;5034139;28;20056;-73
2021/10/17 09:14:14;;;;;;;12.52;6.45;;;8.30;99.90;;;;;;5035017;28;20053;-72
2021/10/17 09:16:43;;;;;;;16.70;7.78;;;8.40;99.90;;;;;;5034845;28;20053;-73
2021/10/17 09:19:12;;;;;;;15.20;7.53;;;8.40;99.90;;;;;;5034840;28;20040;-73
2021/10/17 09:21:52;;;;;;;15.43;6.90;;;8.40;99.90;;;;;;5034424;28;20085;-73
2021/10/17 09:24:26;;;;;;;16.95;8.15;;;8.40;99.90;;;;;;5034332;28;20505;-71
2021/10/17 09:27:05;;;;;;;15.95;7.35;;;8.50;99.90;;;;;;5034551;28;20049;-73
2021/10/17 09:29:33;;;;;;;11.73;7.13;;;8.60;99.90;;;;;;5034277;28;20567;-73
2021/10/17 09:32:00;;;;;;;16.13;6.75;;;8.70;99.90;;;;;;5034294;28;20076;-73
2021/10/17 09:34:28;;;;;;;14.70;7.10;;;8.90;99.90;;;;;;5034884;28;20459;-73
2021/10/17 09:37:07;;;;;;;12.55;6.60;;;8.90;99.90;;;;;;5033987;28;20094;-73
2021/10/17 09:39:37;;;;;;;11.60;6.47;;;8.90;99.90;;;;;;5033941;28;20037;-73
2021/10/17 09:42:06;;;;;;;14.77;6.78;;;9.00;99.90;;;;;;5033437;28;20478;-73
2021/10/17 09:44:40;;;;;;;13.20;6.43;;;9.10;99.90;;;;;;5033974;28;20052;-73
2021/10/17 09:47:08;;;;;;;13.18;6.88;;;9.20;99.90;;;;;;5034889;28;20150;-73
2021/10/17 09:49:35;;;;;;;12.75;5.97;;;9.30;99.90;;;;;;5033136;28;20536;-73
2021/10/17 09:52:14;;;;;;;12.70;7.22;;;9.50;99.90;;;;;;5033684;28;20048;-70
2021/10/17 09:54:44;;;;;;;11.25;5.90;;;9.60;99.90;;;;;;5033813;28;20045;-71
2021/10/17 09:57:11;;;;;;;12.73;5.75;;;9.60;99.90;;;;;;5034241;28;20044;-71
2021/10/17 09:59:38;;;;;;;12.65;6.22;;;9.80;99.90;;;;;;5033646;28;20052;-71
2021/10/17 10:02:09;;;;;;;15.32;6.68;;;9.70;99.90;;;;;;5033526;28;20134;-71
2021/10/17 10:04:40;;;;;;;16.80;6.90;;;9.80;99.90;;;;;;5033984;28;20111;-74
2021/10/17 10:07:07;;;;;;;13.77;6.70;;;9.80;99.90;;;;;;5034026;28;20140;-71
2021/10/17 10:09:36;;;;;;;17.60;6.65;;;9.70;99.90;;;;;;5033619;28;20051;-71
2021/10/17 10:12:05;;;;;;;15.68;7.60;;;10.00;99.90;;;;;;5032843;28;20052;-71
2021/10/17 10:14:33;;;;;;;11.18;6.05;;;9.70;99.90;;;;;;5033041;28;20045;-71
2021/10/17 10:17:03;;;;;;;11.77;7.15;;;9.80;99.90;;;;;;5030257;28;20063;-71
2021/10/17 10:19:33;;;;;;;15.82;7.28;;;10.10;99.90;;;;;;5032730;28;20420;-71
2021/10/17 10:22:00;;;;;;;16.50;7.43;;;9.80;99.90;;;;;;5032784;28;20071;-71
2021/10/17 10:24:31;;;;;;;17.17;7.63;;;10.10;99.90;;;;;;5032955;28;20037;-71
2021/10/17 10:26:59;;;;;;;17.90;7.90;;;9.90;99.90;;;;;;5032514;28;20571;-72
2021/10/17 10:29:29;;;;;;;18.67;7.13;;;10.10;99.90;;;;;;5032896;28;20465;-71
2021/10/17 10:31:56;;;;;;;14.73;7.18;;;10.30;99.90;;;;;;5033207;28;20049;-71
2021/10/17 10:35:03;;;;;;;11.45;6.53;;;10.30;99.90;;;;;;5033081;28;20706;-71
2021/10/17 10:37:32;;;;;;;10.52;6.57;;;10.50;99.90;;;;;;5033351;28;20057;-70
2021/10/17 10:40:15;;;;;;;14.95;7.07;;;10.50;99.90;;;;;;5030314;28;20053;-71
2021/10/17 10:42:46;;;;;;;15.00;6.85;;;10.50;99.90;;;;;;5029733;28;20411;-71
2021/10/17 10:45:26;;;;;;;13.52;7.57;;;10.40;99.90;;;;;;5030422;28;20444;-71
2021/10/17 10:48:16;;;;;;;12.77;6.60;;;10.30;99.90;;;;;;5032617;28;20049;-70
2021/10/17 10:50:45;;;;;;;12.85;7.30;;;10.20;99.90;;;;;;5033505;28;20102;-71
2021/10/17 10:53:12;;;;;;;11.43;6.43;;;10.30;99.90;;;;;;5033390;28;20056;-71
2021/10/17 10:55:48;;;;;;;16.70;7.15;;;10.50;99.90;;;;;;5032333;28;20048;-71
2021/10/17 10:58:24;;;;;;;12.15;7.10;;;10.60;99.90;;;;;;5032398;28;20052;-71
2021/10/17 11:00:53;;;;;;;14.98;6.88;;;10.70;99.90;;;;;;5033088;28;20045;-71
2021/10/17 11:03:24;;;;;;;16.45;7.15;;;10.70;99.90;;;;;;5032067;28;20102;-71
2021/10/17 11:06:16;;;;;;;11.75;7.10;;;10.80;99.90;;;;;;5032393;28;20389;-71
2021/10/17 11:08:44;;;;;;;17.48;7.97;;;10.80;99.90;;;;;;5032966;28;20118;-71
2021/10/17 11:11:11;;;;;;;12.07;6.85;;;11.00;99.90;;;;;;5032505;28;20520;-71
2021/10/17 11:13:41;;;;;;;11.35;6.50;;;11.10;99.90;;;;;;5031865;28;20501;-72
2021/10/17 11:16:19;;;;;;;11.57;6.78;;;11.00;99.90;;;;;;5033180;28;20051;-71
2021/10/17 11:18:47;;;;;;;14.50;6.70;;;11.10;99.90;;;;;;5033592;28;20044;-71
2021/10/17 11:21:15;;;;;;;11.75;7.10;;;11.20;99.90;;;;;;5032696;28;20075;-71
2021/10/17 11:23:42;;;;;;;12.05;6.93;;;11.20;99.90;;;;;;5033661;28;20547;-71
2021/10/17 11:26:11;;;;;;;15.10;6.75;;;11.40;99.90;;;;;;5032869;28;20053;-71
2021/10/17 11:28:40;;;;;;;15.02;6.32;;;11.30;99.90;;;;;;5037286;28;20045;-73
2021/10/17 11:31:11;;;;;;;15.55;7.43;;;11.50;99.90;;;;;;5033739;28;20091;-71
2021/10/17 11:33:40;;;;;;;14.75;7.25;;;11.70;99.90;;;;;;5035432;28;20060;-71
2021/10/17 11:36:09;;;;;;;11.95;6.05;;;11.70;99.90;;;;;;5033512;28;20122;-71
2021/10/17 11:38:37;;;;;;;11.98;6.80;;;11.70;99.90;;;;;;5036143;28;20052;-71
2021/10/17 11:41:07;;;;;;;16.35;7.40;;;11.80;99.90;;;;;;5034820;28;20414;-71
2021/10/17 11:43:39;;;;;;;14.70;6.97;;;11.90;99.90;;;;;;5033305;28;20049;-71
2021/10/17 11:46:10;;;;;;;14.68;6.85;;;12.20;99.90;;;;;;5029508;28;20571;-71
2021/10/17 11:48:38;;;;;;;14.82;6.55;;;12.60;99.90;;;;;;5028822;28;20049;-71
2021/10/17 11:51:07;;;;;;;14.63;7.50;;;12.90;99.90;;;;;;5029265;28;20457;-71
2021/10/17 11:53:35;;;;;;;14.50;7.07;;;13.10;99.90;;;;;;5030058;28;20081;-74
2021/10/17 11:56:02;;;;;;;14.57;7.18;;;13.00;99.90;;;;;;5029785;28;20507;-71
2021/10/17 11:58:31;;;;;;;15.93;7.72;;;13.00;99.90;;;;;;5029073;28;20563;-71
2021/10/17 12:01:06;;;;;;;16.95;7.15;;;13.20;99.90;;;;;;5030571;28;20044;-71
2021/10/17 12:03:35;;;;;;;13.25;7.00;;;13.20;99.90;;;;;;5029179;28;20791;-71
2021/10/17 12:06:03;;;;;;;12.82;7.05;;;12.80;99.90;;;;;;5027658;28;20402;-71
2021/10/17 12:08:31;;;;;;;13.77;6.70;;;13.40;99.90;;;;;;5029447;28;20059;-71
2021/10/17 12:11:01;;;;;;;15.98;7.85;;;13.80;99.90;;;;;;5028720;28;20391;-72
2021/10/17 12:13:29;;;;;;;15.25;7.75;;;14.00;99.90;;;;;;5027507;28;20532;-71
2021/10/17 12:16:04;;;;;;;15.38;7.80;;;13.80;99.90;;;;;;5032196;28;20048;-71
2021/10/17 12:18:31;;;;;;;12.45;6.88;;;13.60;99.90;;;;;;5031418;28;20583;-71
2021/10/17 12:21:00;;;;;;;14.07;6.60;;;13.90;99.90;;;;;;5034678;28;20498;-71
2021/10/17 12:23:27;;;;;;;16.00;7.30;;;14.10;99.90;;;;;;5035743;28;20076;-72
2021/10/17 12:25:54;;;;;;;16.77;7.35;;;14.40;99.90;;;;;;5034885;28;20099;-71
2021/10/17 12:28:22;;;;;;;10.80;6.70;;;14.20;99.90;;;;;;5035061;28;20045;-71
2021/10/17 12:30:51;;;;;;;13.07;6.75;;;14.40;99.90;;;;;;5034203;28;20053;-71
2021/10/17 12:33:26;;;;;;;13.73;6.75;;;14.50;99.90;;;;;;5033776;28;20110;-71
2021/10/17 12:35:53;;;;;;;12.70;5.78;;;14.70;99.90;;;;;;5031738;28;20136;-72
2021/10/17 12:38:22;;;;;;;14.32;7.18;;;14.40;99.90;;;;;;5031726;28;20094;-71
2021/10/17 12:40:55;;;;;;;12.45;5.63;;;13.90;99.90;;;;;;5034418;28;20063;-71
2021/10/17 12:43:27;;;;;;;15.63;7.40;;;14.10;99.90;;;;;;5032502;28;20135;-71
2021/10/17 12:45:55;;;;;;;12.80;5.88;;;15.00;99.90;;;;;;5032489;28;20407;-72
2021/10/17 12:48:36;;;;;;;9.63;5.00;;;14.80;99.90;;;;;;5032691;28;20048;-72